Terminal Aerodrome Forecast
Issued by NWS Austin/San Antonio, TX

Current Version | Previous Version | Text Only | Print | Product List | Glossary Off
Versions: 1 2 3 4 5 6 7 8 9 10 11 12 13 14 15 16 17 18 19 20 21 22

000
FTUS44 KEWX 311000 AAE
TAFSAT
TAF AMD
KSAT 311015Z 3110/0112 02009KT P6SM -TSRA SCT006CB BKN027 OVC100
     FM311100 01010KT P6SM SCT007 BKN035 OVC060
     FM311500 02014G24KT P6SM FEW060
     FM010000 03007KT P6SM SKC=

USA.gov is the U.S. government's official web portal to all federal, state and local government web resources and services.